Time;durP1;ratioP1;P1;durP2;ratioP2;P2;SDS_P1;SDS_P2;PMS_P1;PMS_P2;Temp;Humidity;BMP_temperature;BMP_pressure;BME280_temperature;BME280_humidity;BME280_pressure;Samples;Min_cycle;Max_cycle;Signal;HPM_P1;HPM_P2
2023/12/20 00:01:27;;;;;;;11.93;2.17;;;8.00;99.90;;;;;;7288349;19;20652;-80
2023/12/20 00:03:53;;;;;;;16.50;2.40;;;8.00;99.90;;;;;;7286363;19;20177;-80
2023/12/20 00:06:18;;;;;;;16.53;2.47;;;7.90;99.90;;;;;;7283173;19;20205;-79
2023/12/20 00:08:44;;;;;;;14.27;2.80;;;8.00;99.90;;;;;;7286121;19;20256;-80
2023/12/20 00:11:10;;;;;;;14.33;2.40;;;8.00;99.90;;;;;;7307483;19;20292;-80
2023/12/20 00:13:36;;;;;;;17.50;2.43;;;8.10;99.90;;;;;;7285086;19;20302;-80
2023/12/20 00:16:01;;;;;;;19.03;2.83;;;8.20;99.90;;;;;;7284849;19;20199;-80
2023/12/20 00:18:27;;;;;;;20.50;2.50;;;8.10;99.90;;;;;;7284197;19;20249;-79
2023/12/20 00:20:53;;;;;;;15.10;2.37;;;8.10;99.90;;;;;;7284257;19;20645;-80
2023/12/20 00:23:19;;;;;;;14.63;2.73;;;8.10;99.90;;;;;;7283570;19;20193;-79
2023/12/20 00:25:44;;;;;;;21.03;2.90;;;8.20;99.90;;;;;;7281419;19;21012;-79
2023/12/20 00:28:10;;;;;;;12.37;2.33;;;8.20;99.90;;;;;;7304589;19;20257;-79
2023/12/20 00:30:36;;;;;;;17.47;2.47;;;8.20;99.90;;;;;;7296102;19;20191;-80
2023/12/20 00:33:02;;;;;;;17.10;2.40;;;8.20;99.90;;;;;;7299658;19;20195;-79
2023/12/20 00:35:28;;;;;;;17.60;2.40;;;8.10;99.90;;;;;;7286095;19;20200;-79
2023/12/20 00:37:54;;;;;;;15.03;2.87;;;8.10;99.90;;;;;;7287242;19;20196;-79
2023/12/20 00:40:20;;;;;;;15.10;2.50;;;8.00;99.90;;;;;;7289139;19;20299;-79
2023/12/20 00:42:46;;;;;;;12.10;2.67;;;7.90;99.90;;;;;;7288220;19;20197;-80
2023/12/20 00:45:12;;;;;;;18.00;2.47;;;7.90;99.90;;;;;;7295941;19;20189;-79
2023/12/20 00:47:38;;;;;;;14.37;2.90;;;7.80;99.90;;;;;;7307358;19;20289;-79
2023/12/20 00:50:04;;;;;;;11.97;2.70;;;7.80;99.90;;;;;;7286722;19;20193;-80
2023/12/20 00:52:30;;;;;;;19.50;3.43;;;7.90;99.90;;;;;;7284786;19;20652;-80
2023/12/20 00:54:56;;;;;;;20.80;3.30;;;7.90;99.90;;;;;;7283762;19;20191;-79
2023/12/20 00:57:22;;;;;;;13.40;2.90;;;7.90;99.90;;;;;;7284172;19;20189;-80
2023/12/20 00:59:47;;;;;;;16.90;2.80;;;8.00;99.90;;;;;;7284170;19;20198;-80
2023/12/20 01:02:13;;;;;;;19.00;3.17;;;7.90;99.90;;;;;;7284206;19;20197;-79
2023/12/20 01:04:39;;;;;;;18.00;2.93;;;7.90;99.90;;;;;;7304569;19;20193;-79
2023/12/20 01:07:05;;;;;;;18.90;3.13;;;7.90;99.90;;;;;;7283548;19;20190;-80
2023/12/20 01:09:30;;;;;;;16.87;3.17;;;7.90;99.90;;;;;;7284714;19;20224;-79
2023/12/20 01:11:56;;;;;;;17.43;3.10;;;7.80;99.90;;;;;;7282877;19;20202;-81
2023/12/20 01:14:22;;;;;;;22.50;3.60;;;7.70;99.90;;;;;;7281369;19;20199;-80
2023/12/20 01:16:48;;;;;;;17.63;3.10;;;7.70;99.90;;;;;;7282163;19;20255;-79
2023/12/20 01:19:14;;;;;;;15.17;2.73;;;7.60;99.90;;;;;;7283311;19;20193;-80
2023/12/20 01:21:40;;;;;;;16.23;3.10;;;7.50;99.90;;;;;;7303161;19;20184;-80
2023/12/20 01:24:09;;;;;;;27.03;4.07;;;7.50;99.90;;;;;;7283029;19;20204;-78
2023/12/20 01:26:34;;;;;;;16.33;2.70;;;7.50;99.90;;;;;;7282156;19;20285;-80
2023/12/20 01:29:00;;;;;;;20.70;3.80;;;7.50;99.90;;;;;;7279250;19;20580;-79
2023/12/20 01:31:27;;;;;;;21.37;3.40;;;7.50;99.90;;;;;;7281877;19;20197;-79
2023/12/20 01:33:53;;;;;;;21.57;4.33;;;7.50;99.90;;;;;;7281390;19;20215;-79
2023/12/20 01:36:19;;;;;;;15.60;3.40;;;7.40;99.90;;;;;;7283584;19;20188;-79
2023/12/20 01:38:45;;;;;;;21.07;3.80;;;7.50;99.90;;;;;;7283726;19;20206;-81
2023/12/20 01:41:11;;;;;;;25.20;4.07;;;7.50;99.90;;;;;;7305252;19;20618;-81
2023/12/20 01:43:36;;;;;;;24.63;3.90;;;7.50;99.90;;;;;;7285201;19;20209;-80
2023/12/20 01:46:03;;;;;;;22.67;3.77;;;7.50;99.90;;;;;;7283194;19;20269;-80
2023/12/20 01:48:31;;;;;;;19.27;3.67;;;7.40;99.90;;;;;;7284934;19;20188;-80
2023/12/20 01:50:57;;;;;;;19.17;3.77;;;7.40;99.90;;;;;;7281846;19;20193;-79
2023/12/20 01:53:25;;;;;;;20.87;4.00;;;7.40;99.90;;;;;;7281051;19;20186;-79
2023/12/20 01:55:54;;;;;;;18.07;3.60;;;7.40;99.90;;;;;;7282440;19;20192;-79
2023/12/20 01:58:20;;;;;;;22.03;4.60;;;7.30;99.90;;;;;;7280208;19;20177;-80
2023/12/20 02:00:46;;;;;;;24.63;4.53;;;7.20;99.90;;;;;;7281259;19;20210;-80
2023/12/20 02:03:12;;;;;;;20.27;4.03;;;7.20;99.90;;;;;;7293514;19;20221;-79
2023/12/20 02:05:38;;;;;;;18.33;4.13;;;7.20;99.90;;;;;;7295823;19;20644;-80
2023/12/20 02:08:05;;;;;;;26.77;4.40;;;7.20;99.90;;;;;;7283160;19;20275;-80
2023/12/20 02:10:31;;;;;;;18.27;4.63;;;7.20;99.90;;;;;;7288215;19;20188;-81
2023/12/20 02:12:58;;;;;;;21.77;4.97;;;7.20;99.90;;;;;;7288139;19;20181;-80
2023/12/20 02:15:23;;;;;;;22.67;5.10;;;7.30;99.90;;;;;;7289830;19;20204;-80
2023/12/20 02:17:50;;;;;;;17.00;4.07;;;7.40;99.90;;;;;;7286259;19;20181;-80
2023/12/20 02:20:16;;;;;;;23.77;4.67;;;7.40;99.90;;;;;;7287596;19;20201;-80
2023/12/20 02:22:41;;;;;;;24.57;5.00;;;7.40;99.90;;;;;;7308697;19;20186;-80
2023/12/20 02:25:07;;;;;;;25.13;4.60;;;7.40;99.90;;;;;;7296407;19;20677;-80
2023/12/20 02:27:34;;;;;;;20.93;4.97;;;7.40;99.90;;;;;;7286727;19;20206;-80
2023/12/20 02:30:00;;;;;;;22.13;5.17;;;7.40;99.90;;;;;;7289002;19;20196;-81
2023/12/20 02:32:28;;;;;;;19.13;4.97;;;7.40;99.90;;;;;;7286634;19;20558;-80
2023/12/20 02:34:54;;;;;;;20.83;6.03;;;7.50;99.90;;;;;;7287105;19;20212;-79
2023/12/20 02:37:21;;;;;;;21.70;5.63;;;7.60;99.90;;;;;;7287829;19;20184;-80
2023/12/20 02:39:46;;;;;;;18.07;4.57;;;7.50;99.90;;;;;;7286117;19;20199;-80
2023/12/20 02:42:12;;;;;;;26.97;5.17;;;7.60;99.90;;;;;;7299098;19;20200;-80
2023/12/20 02:44:39;;;;;;;24.10;5.33;;;7.50;99.90;;;;;;7309738;19;20181;-80
2023/12/20 02:47:05;;;;;;;28.37;5.37;;;7.60;99.90;;;;;;7289060;19;20249;-80
2023/12/20 02:49:31;;;;;;;20.67;5.57;;;7.50;99.90;;;;;;7287337;19;20215;-80
2023/12/20 02:51:57;;;;;;;20.43;5.30;;;7.50;99.90;;;;;;7285675;19;20188;-80
2023/12/20 02:54:23;;;;;;;28.33;6.10;;;7.40;99.90;;;;;;7287142;19;20189;-80
2023/12/20 02:56:49;;;;;;;19.80;5.00;;;7.40;99.90;;;;;;7286136;19;20181;-80
2023/12/20 02:59:15;;;;;;;23.63;5.40;;;7.40;99.90;;;;;;7284296;19;20185;-80
2023/12/20 03:01:45;;;;;;;20.77;5.53;;;7.40;99.90;;;;;;7307777;19;20224;-80
2023/12/20 03:04:12;;;;;;;18.23;5.20;;;7.40;99.90;;;;;;7287752;19;20193;-80
2023/12/20 03:06:38;;;;;;;22.10;5.17;;;7.40;99.90;;;;;;7286328;19;20189;-80
2023/12/20 03:09:04;;;;;;;18.30;5.70;;;7.40;99.90;;;;;;7285665;19;20193;-79
2023/12/20 03:11:30;;;;;;;23.57;5.30;;;7.60;99.90;;;;;;7287158;19;20189;-80
2023/12/20 03:13:56;;;;;;;20.90;4.80;;;7.60;99.90;;;;;;7286637;19;20196;-80
2023/12/20 03:16:23;;;;;;;27.30;4.83;;;7.60;99.90;;;;;;7286536;19;20244;-80
2023/12/20 03:18:48;;;;;;;21.50;4.57;;;7.70;99.90;;;;;;7284634;19;20198;-80
2023/12/20 03:21:14;;;;;;;19.40;4.90;;;7.70;99.90;;;;;;7287968;19;20624;-80
2023/12/20 03:23:41;;;;;;;20.10;4.00;;;7.70;99.90;;;;;;7307393;19;20220;-80
2023/12/20 03:26:07;;;;;;;23.43;5.10;;;7.80;99.90;;;;;;7284817;19;20189;-80
2023/12/20 03:28:33;;;;;;;17.53;4.27;;;7.80;99.90;;;;;;7286962;19;20184;-79
2023/12/20 03:30:59;;;;;;;20.17;4.67;;;7.90;99.90;;;;;;7286348;19;20189;-79
2023/12/20 03:33:25;;;;;;;21.47;5.00;;;7.90;99.90;;;;;;7284822;19;20193;-79
2023/12/20 03:35:51;;;;;;;18.60;4.80;;;8.00;99.90;;;;;;7285565;19;20217;-79
2023/12/20 03:38:17;;;;;;;17.83;4.47;;;8.10;99.90;;;;;;7285401;19;20197;-79
2023/12/20 03:40:42;;;;;;;14.67;4.07;;;8.10;99.90;;;;;;7300579;19;20249;-79
2023/12/20 03:43:08;;;;;;;16.27;4.73;;;8.10;99.90;;;;;;7300988;19;20184;-79
2023/12/20 03:45:34;;;;;;;21.83;4.70;;;8.00;99.90;;;;;;7284700;19;20194;-79
2023/12/20 03:48:00;;;;;;;13.53;3.60;;;8.10;99.90;;;;;;7285190;19;20276;-79
2023/12/20 03:50:26;;;;;;;19.20;4.23;;;8.00;99.90;;;;;;7284116;19;20197;-80
2023/12/20 03:52:52;;;;;;;19.23;4.10;;;8.00;99.90;;;;;;7283970;19;20213;-80
2023/12/20 03:55:18;;;;;;;16.37;3.63;;;8.00;99.90;;;;;;7285809;19;20264;-80
2023/12/20 03:57:44;;;;;;;15.30;3.83;;;8.00;99.90;;;;;;7285037;19;20202;-80
2023/12/20 04:00:11;;;;;;;16.60;3.63;;;7.80;99.90;;;;;;7306062;19;20193;-80
2023/12/20 04:02:42;;;;;;;16.87;3.70;;;7.80;99.90;;;;;;7286816;19;20201;-80
2023/12/20 04:05:09;;;;;;;19.17;3.90;;;7.80;99.90;;;;;;7286402;19;20680;-80
2023/12/20 04:07:36;;;;;;;18.37;3.57;;;7.90;99.90;;;;;;7285599;19;20192;-80
2023/12/20 04:10:03;;;;;;;21.83;3.63;;;7.90;99.90;;;;;;7286471;19;20709;-80
2023/12/20 04:12:30;;;;;;;17.53;3.67;;;7.80;99.90;;;;;;7286262;19;20181;-80
2023/12/20 04:14:57;;;;;;;18.23;3.80;;;7.90;99.90;;;;;;7284463;19;20196;-80
2023/12/20 04:17:23;;;;;;;13.30;3.57;;;7.90;99.90;;;;;;7284154;19;20540;-80
2023/12/20 04:19:50;;;;;;;21.87;4.10;;;7.90;99.90;;;;;;7284672;19;20213;-80
2023/12/20 04:22:18;;;;;;;15.10;3.43;;;7.90;99.90;;;;;;7284708;19;20209;-79
2023/12/20 04:24:44;;;;;;;13.33;3.73;;;8.00;99.90;;;;;;7290394;19;20192;-80
2023/12/20 04:27:10;;;;;;;18.17;3.53;;;8.00;99.90;;;;;;7306947;19;20191;-80
2023/12/20 04:29:35;;;;;;;17.37;3.60;;;8.00;99.90;;;;;;7282114;19;20184;-80
2023/12/20 04:32:01;;;;;;;17.83;3.70;;;8.00;99.90;;;;;;7282531;19;20188;-80
2023/12/20 04:34:27;;;;;;;22.17;3.70;;;7.90;99.90;;;;;;7282848;19;20237;-79
2023/12/20 04:36:53;;;;;;;15.60;3.97;;;7.90;99.90;;;;;;7284387;19;20197;-80
2023/12/20 04:39:19;;;;;;;20.07;3.50;;;7.90;99.90;;;;;;7282179;19;20201;-80
2023/12/20 04:41:44;;;;;;;17.37;3.60;;;7.80;99.90;;;;;;7280673;19;20664;-81
2023/12/20 04:44:10;;;;;;;17.40;3.70;;;7.80;99.90;;;;;;7305990;19;20199;-80
2023/12/20 04:46:36;;;;;;;17.27;3.93;;;7.80;99.90;;;;;;7285584;19;20209;-81
2023/12/20 04:49:02;;;;;;;17.30;3.77;;;7.90;99.90;;;;;;7301273;19;20206;-80
2023/12/20 04:51:28;;;;;;;19.70;3.83;;;7.70;99.90;;;;;;7303617;19;20201;-79
2023/12/20 04:53:53;;;;;;;16.23;3.57;;;7.80;99.90;;;;;;7301628;19;20193;-80
2023/12/20 04:56:19;;;;;;;14.30;3.73;;;7.80;99.90;;;;;;7293409;19;20329;-80
2023/12/20 04:58:45;;;;;;;21.13;3.57;;;7.80;99.90;;;;;;7282615;19;20230;-80
2023/12/20 05:01:11;;;;;;;23.17;3.73;;;7.70;99.90;;;;;;7303050;19;20272;-79
2023/12/20 05:03:37;;;;;;;18.17;3.70;;;7.70;99.90;;;;;;7281689;19;20579;-79
2023/12/20 05:06:03;;;;;;;20.20;3.57;;;7.70;99.90;;;;;;7280469;19;20187;-79
2023/12/20 05:08:29;;;;;;;20.90;3.87;;;7.70;99.90;;;;;;7281514;19;20196;-79
2023/12/20 05:10:55;;;;;;;13.83;3.20;;;7.70;99.90;;;;;;7281915;19;20609;-79
2023/12/20 05:13:21;;;;;;;14.57;3.50;;;7.60;99.90;;;;;;7279151;19;20750;-79
2023/12/20 05:15:47;;;;;;;18.33;3.90;;;7.60;99.90;;;;;;7281379;19;20193;-79
2023/12/20 05:18:13;;;;;;;15.73;3.63;;;7.50;99.90;;;;;;7298471;19;20676;-79
2023/12/20 05:20:39;;;;;;;18.73;3.83;;;7.50;99.90;;;;;;7299676;19;20294;-79
2023/12/20 05:23:05;;;;;;;18.63;4.07;;;7.60;99.90;;;;;;7282668;19;20188;-79
2023/12/20 05:25:31;;;;;;;16.07;3.43;;;7.60;99.90;;;;;;7283290;19;20203;-79
2023/12/20 05:27:57;;;;;;;15.23;3.47;;;7.50;99.90;;;;;;7282041;19;20193;-79
2023/12/20 05:30:22;;;;;;;19.57;3.40;;;7.40;99.90;;;;;;7283476;19;21105;-79
2023/12/20 05:32:48;;;;;;;15.60;3.07;;;7.20;99.90;;;;;;7281614;19;20206;-79
2023/12/20 05:35:15;;;;;;;12.90;2.70;;;7.10;99.90;;;;;;7282110;19;20285;-79
2023/12/20 05:37:41;;;;;;;15.47;3.33;;;7.00;99.90;;;;;;7303606;19;20683;-80
2023/12/20 05:40:10;;;;;;;14.83;3.70;;;6.90;99.90;;;;;;7281069;19;20190;-79
2023/12/20 05:42:37;;;;;;;20.20;3.77;;;7.00;99.90;;;;;;7286610;19;20191;-80
2023/12/20 05:45:03;;;;;;;16.43;3.23;;;7.10;99.90;;;;;;7289467;19;20210;-80
2023/12/20 05:47:29;;;;;;;16.20;3.57;;;7.10;99.90;;;;;;7288131;19;20184;-80
2023/12/20 05:49:55;;;;;;;17.47;3.40;;;7.00;99.90;;;;;;7290048;19;20214;-79
2023/12/20 05:52:21;;;;;;;20.03;3.77;;;7.00;99.90;;;;;;7286816;19;20208;-79
2023/12/20 05:54:47;;;;;;;21.23;3.83;;;6.90;99.90;;;;;;7288136;19;20184;-79
2023/12/20 05:57:13;;;;;;;18.13;3.90;;;6.70;99.90;;;;;;7303301;19;20198;-80
2023/12/20 05:59:39;;;;;;;21.50;4.07;;;6.70;99.90;;;;;;7303402;19;20694;-80
2023/12/20 06:02:05;;;;;;;18.13;3.73;;;6.70;99.90;;;;;;7286789;19;20186;-79
2023/12/20 06:04:31;;;;;;;16.27;3.53;;;6.80;99.90;;;;;;7288565;19;20559;-80
2023/12/20 06:06:57;;;;;;;15.90;3.60;;;6.80;99.90;;;;;;7288376;19;20196;-79
2023/12/20 06:09:23;;;;;;;17.60;3.83;;;6.90;99.90;;;;;;7288768;19;20185;-80
2023/12/20 06:11:48;;;;;;;18.10;3.50;;;6.90;99.90;;;;;;7288451;19;20207;-80
2023/12/20 06:14:14;;;;;;;18.00;3.53;;;6.90;99.90;;;;;;7290776;19;20195;-80
2023/12/20 06:16:40;;;;;;;18.40;3.87;;;6.70;99.90;;;;;;7310455;19;20181;-80
2023/12/20 06:19:06;;;;;;;19.73;4.17;;;6.80;99.90;;;;;;7288223;19;20612;-80
2023/12/20 06:21:32;;;;;;;20.43;3.70;;;6.80;99.90;;;;;;7287700;19;20657;-80
2023/12/20 06:23:59;;;;;;;18.50;4.10;;;6.90;99.90;;;;;;7287467;19;20833;-80
2023/12/20 06:26:25;;;;;;;18.67;3.77;;;6.90;99.90;;;;;;7288085;19;20192;-80
2023/12/20 06:28:51;;;;;;;22.23;3.70;;;7.00;99.90;;;;;;7286737;19;20673;-80
2023/12/20 06:31:17;;;;;;;24.63;3.77;;;7.00;99.90;;;;;;7285871;19;20198;-80
2023/12/20 06:33:43;;;;;;;13.33;2.87;;;7.00;99.90;;;;;;7304395;19;20185;-80
2023/12/20 06:36:16;;;;;;;17.87;2.80;;;7.10;99.90;;;;;;7306661;19;20264;-80
2023/12/20 06:38:44;;;;;;;19.90;3.60;;;7.20;99.90;;;;;;7287956;19;20188;-80
2023/12/20 06:41:14;;;;;;;11.80;2.93;;;7.20;99.90;;;;;;7285922;19;20184;-80
2023/12/20 06:43:40;;;;;;;18.53;3.07;;;7.30;99.90;;;;;;7287649;19;21025;-80
2023/12/20 06:46:06;;;;;;;14.57;2.73;;;7.10;99.90;;;;;;7285186;19;20210;-79
2023/12/20 06:48:32;;;;;;;15.23;3.00;;;7.00;99.90;;;;;;7287218;19;22116;-79
2023/12/20 06:51:01;;;;;;;15.20;3.00;;;7.00;99.90;;;;;;7287095;19;20186;-80
2023/12/20 06:53:27;;;;;;;17.77;3.70;;;6.80;99.90;;;;;;7283148;19;20764;-78
2023/12/20 06:55:53;;;;;;;23.53;3.33;;;6.70;99.90;;;;;;7287538;19;20193;-78
2023/12/20 06:58:19;;;;;;;20.10;3.57;;;6.70;99.90;;;;;;7285305;19;20195;-78
2023/12/20 07:00:45;;;;;;;14.87;2.77;;;6.80;99.90;;;;;;7287706;19;20188;-79
2023/12/20 07:03:11;;;;;;;15.67;3.33;;;6.80;99.90;;;;;;7308479;19;20185;-78
2023/12/20 07:05:37;;;;;;;15.17;3.27;;;6.70;99.90;;;;;;7287086;19;20311;-79
2023/12/20 07:08:03;;;;;;;19.57;2.97;;;6.70;99.90;;;;;;7285686;19;20283;-79
2023/12/20 07:10:29;;;;;;;20.00;3.20;;;6.60;99.90;;;;;;7286090;19;20198;-79
2023/12/20 07:12:55;;;;;;;14.40;3.10;;;6.60;99.90;;;;;;7285187;19;20191;-79
2023/12/20 07:15:22;;;;;;;19.77;3.93;;;6.60;99.90;;;;;;7286290;19;20194;-78
2023/12/20 07:17:50;;;;;;;23.83;3.67;;;6.60;99.90;;;;;;7285883;19;20199;-78
2023/12/20 07:20:15;;;;;;;16.13;3.37;;;6.50;99.90;;;;;;7286259;19;20643;-79
2023/12/20 07:22:41;;;;;;;14.00;3.30;;;6.50;99.90;;;;;;7306910;19;20946;-79
2023/12/20 07:25:08;;;;;;;16.17;3.23;;;6.50;99.90;;;;;;7284823;19;20195;-78
2023/12/20 07:27:34;;;;;;;17.17;3.40;;;6.50;99.90;;;;;;7285408;19;20193;-79
2023/12/20 07:29:59;;;;;;;19.47;3.40;;;6.50;99.90;;;;;;7285184;19;20969;-78
2023/12/20 07:32:25;;;;;;;19.13;3.30;;;6.50;99.90;;;;;;7284469;19;20217;-79
2023/12/20 07:34:51;;;;;;;17.83;3.27;;;6.50;99.90;;;;;;7284870;19;20196;-79
2023/12/20 07:37:17;;;;;;;16.40;3.27;;;6.40;99.90;;;;;;7285124;19;20188;-79
2023/12/20 07:39:43;;;;;;;19.90;3.47;;;6.40;99.90;;;;;;7300647;19;20186;-79
2023/12/20 07:42:09;;;;;;;20.10;3.43;;;6.40;99.90;;;;;;7296639;19;20197;-79
2023/12/20 07:44:35;;;;;;;14.03;3.37;;;6.40;99.90;;;;;;7284134;19;20189;-78
2023/12/20 07:47:02;;;;;;;14.13;3.07;;;6.40;99.90;;;;;;7284491;19;20217;-79
2023/12/20 07:49:27;;;;;;;20.27;3.17;;;6.30;99.90;;;;;;7286445;19;20281;-79
2023/12/20 07:51:53;;;;;;;20.13;3.40;;;6.30;99.90;;;;;;7281783;19;20208;-79
2023/12/20 07:54:19;;;;;;;17.57;3.20;;;6.30;99.90;;;;;;7285446;19;20198;-79
2023/12/20 07:56:46;;;;;;;21.63;3.20;;;6.40;99.90;;;;;;7284385;19;20181;-79
2023/12/20 07:59:12;;;;;;;17.70;2.60;;;6.40;99.90;;;;;;7305463;19;20270;-78
2023/12/20 08:01:38;;;;;;;18.87;3.37;;;6.40;99.90;;;;;;7287036;19;20698;-79
2023/12/20 08:04:04;;;;;;;18.00;3.20;;;6.40;99.90;;;;;;7285896;19;20302;-79
2023/12/20 08:06:32;;;;;;;27.47;3.57;;;6.40;99.90;;;;;;7281374;19;20659;-80
2023/12/20 08:08:57;;;;;;;18.87;4.10;;;6.40;99.90;;;;;;7286047;19;20989;-78
2023/12/20 08:11:23;;;;;;;21.13;3.20;;;6.30;99.90;;;;;;7283667;19;20192;-78
2023/12/20 08:13:49;;;;;;;17.43;3.80;;;6.40;99.90;;;;;;7281954;19;20255;-78
2023/12/20 08:16:17;;;;;;;20.30;4.20;;;6.40;99.90;;;;;;7285087;19;20631;-78
2023/12/20 08:18:43;;;;;;;24.33;3.90;;;6.40;99.90;;;;;;7301244;19;20651;-79
2023/12/20 08:21:09;;;;;;;23.83;5.30;;;6.40;99.90;;;;;;7293885;19;20197;-79
2023/12/20 08:23:35;;;;;;;22.30;5.67;;;6.40;99.90;;;;;;7284298;19;20273;-78
2023/12/20 08:26:05;;;;;;;24.00;5.07;;;6.30;99.90;;;;;;7284494;19;20256;-79
2023/12/20 08:28:31;;;;;;;20.30;4.77;;;6.30;99.90;;;;;;7281704;19;20217;-79
2023/12/20 08:30:57;;;;;;;25.27;4.27;;;6.30;99.90;;;;;;7282276;19;20193;-78
2023/12/20 08:33:22;;;;;;;25.67;3.80;;;6.40;99.90;;;;;;7282646;19;20196;-79
2023/12/20 08:35:48;;;;;;;21.00;3.70;;;6.50;99.90;;;;;;7283084;19;20544;-79
2023/12/20 08:38:14;;;;;;;23.50;3.90;;;6.50;99.90;;;;;;7289316;19;20185;-79
2023/12/20 08:40:40;;;;;;;17.60;4.10;;;6.60;99.90;;;;;;7301032;19;20204;-79
2023/12/20 08:43:06;;;;;;;21.07;3.70;;;6.70;99.90;;;;;;7279849;19;20225;-78
2023/12/20 08:45:31;;;;;;;19.47;3.73;;;6.70;99.90;;;;;;7282766;19;20196;-79
2023/12/20 08:47:57;;;;;;;19.10;3.60;;;6.70;99.90;;;;;;7282835;19;20214;-79
2023/12/20 08:50:23;;;;;;;21.03;3.50;;;6.80;99.90;;;;;;7282828;19;20195;-79
2023/12/20 08:52:49;;;;;;;16.50;3.30;;;6.80;99.90;;;;;;7282596;19;20196;-79
2023/12/20 08:55:17;;;;;;;18.50;3.20;;;6.90;99.90;;;;;;7282482;19;20534;-79
2023/12/20 08:57:43;;;;;;;19.30;3.37;;;6.90;99.90;;;;;;7299445;19;20185;-79
2023/12/20 09:00:10;;;;;;;17.57;3.20;;;6.90;99.90;;;;;;7297022;19;20274;-79
2023/12/20 09:02:38;;;;;;;22.23;3.83;;;6.80;99.90;;;;;;7284652;19;20633;-79
2023/12/20 09:05:04;;;;;;;18.77;3.37;;;6.90;99.90;;;;;;7280857;19;20202;-79
2023/12/20 09:07:31;;;;;;;21.23;3.43;;;6.90;99.90;;;;;;7282663;19;20306;-79
2023/12/20 09:09:58;;;;;;;19.43;3.63;;;6.90;99.90;;;;;;7284029;19;20203;-79
2023/12/20 09:12:24;;;;;;;20.73;3.80;;;6.90;99.90;;;;;;7281283;19;20199;-79
2023/12/20 09:14:56;;;;;;;17.77;3.53;;;6.80;99.90;;;;;;7281922;19;20194;-79
2023/12/20 09:17:22;;;;;;;16.40;3.60;;;7.00;99.90;;;;;;7284367;19;20561;-79
2023/12/20 09:19:48;;;;;;;18.57;3.10;;;6.90;99.90;;;;;;7281418;19;20193;-80
2023/12/20 09:22:14;;;;;;;24.43;3.83;;;7.10;99.90;;;;;;7287543;19;20188;-79
2023/12/20 09:24:40;;;;;;;17.90;2.87;;;7.10;99.90;;;;;;7303884;19;20203;-79
2023/12/20 09:27:06;;;;;;;22.03;3.63;;;7.00;99.90;;;;;;7283037;19;20396;-78
2023/12/20 09:29:32;;;;;;;20.97;3.23;;;7.00;99.90;;;;;;7282024;19;20196;-79
2023/12/20 09:31:58;;;;;;;13.13;2.83;;;7.10;99.90;;;;;;7282687;19;20198;-79
2023/12/20 09:34:25;;;;;;;18.57;3.83;;;7.10;99.90;;;;;;7278161;19;20574;-79
2023/12/20 09:36:51;;;;;;;24.60;4.40;;;7.30;99.90;;;;;;7283149;19;20189;-79
2023/12/20 09:39:20;;;;;;;25.23;3.90;;;7.40;99.90;;;;;;7282231;19;20193;-79
2023/12/20 09:42:09;;;;;;;23.97;4.03;;;7.60;99.90;;;;;;7282931;19;20197;-79
2023/12/20 09:44:36;;;;;;;18.97;3.83;;;7.80;99.90;;;;;;7281697;19;20304;-78
2023/12/20 09:47:05;;;;;;;23.03;3.83;;;7.90;99.90;;;;;;7281555;19;20186;-79
2023/12/20 09:49:32;;;;;;;15.93;3.50;;;8.10;99.90;;;;;;7281212;19;20197;-79
2023/12/20 09:52:00;;;;;;;21.30;3.57;;;8.40;99.90;;;;;;7282338;19;20213;-80
2023/12/20 09:54:28;;;;;;;18.60;4.03;;;8.50;99.90;;;;;;7281085;19;20199;-80
2023/12/20 09:56:54;;;;;;;21.90;4.57;;;8.50;99.90;;;;;;7281882;19;20207;-81
2023/12/20 09:59:20;;;;;;;21.63;5.27;;;8.70;99.90;;;;;;7280867;19;20186;-81
2023/12/20 10:01:46;;;;;;;20.40;6.20;;;8.90;99.90;;;;;;7281057;19;20180;-79
2023/12/20 10:04:13;;;;;;;28.17;7.57;;;9.10;99.90;;;;;;7304667;19;20537;-80
2023/12/20 10:06:43;;;;;;;23.80;6.70;;;9.20;99.90;;;;;;7280702;19;20194;-80
2023/12/20 10:09:12;;;;;;;21.93;4.57;;;9.20;99.90;;;;;;7285257;19;20181;-83
2023/12/20 10:11:39;;;;;;;17.23;3.40;;;9.40;99.90;;;;;;7279879;19;20188;-80
2023/12/20 10:14:06;;;;;;;17.13;3.77;;;9.40;99.90;;;;;;7281434;19;20284;-81
2023/12/20 10:16:33;;;;;;;20.60;3.80;;;9.40;99.90;;;;;;7282102;19;20215;-81
2023/12/20 10:19:00;;;;;;;18.63;2.70;;;9.30;99.90;;;;;;7281121;19;20189;-81
2023/12/20 10:21:26;;;;;;;17.87;3.40;;;9.30;99.90;;;;;;7278809;19;20675;-81
2023/12/20 10:23:55;;;;;;;21.47;3.27;;;9.30;99.90;;;;;;7281815;19;20191;-81
2023/12/20 10:26:25;;;;;;;19.90;3.67;;;9.30;99.90;;;;;;7281342;19;20188;-81
2023/12/20 10:28:53;;;;;;;26.30;5.13;;;9.30;99.90;;;;;;7281788;19;20223;-81
2023/12/20 10:31:33;;;;;;;20.80;4.77;;;9.30;99.90;;;;;;7286338;19;20210;-80
2023/12/20 10:34:00;;;;;;;18.17;3.73;;;9.40;99.90;;;;;;7285526;19;20200;-81
2023/12/20 10:36:28;;;;;;;13.87;3.30;;;9.30;99.90;;;;;;7288329;19;20206;-81
2023/12/20 10:38:55;;;;;;;21.00;3.90;;;9.10;99.90;;;;;;7286508;19;20193;-81
2023/12/20 10:41:30;;;;;;;17.17;2.90;;;9.20;99.90;;;;;;7286519;19;20201;-80
2023/12/20 10:43:59;;;;;;;20.93;3.57;;;9.30;99.90;;;;;;7286943;19;20203;-81
2023/12/20 10:46:29;;;;;;;15.83;3.07;;;9.40;99.90;;;;;;7286654;19;20193;-80
2023/12/20 10:48:56;;;;;;;16.47;3.47;;;9.60;99.90;;;;;;7288464;19;20218;-81
2023/12/20 10:51:24;;;;;;;20.73;4.17;;;9.70;99.90;;;;;;7287031;19;20205;-81
2023/12/20 10:53:50;;;;;;;18.43;3.40;;;9.50;99.90;;;;;;7286719;19;20188;-80
2023/12/20 10:56:18;;;;;;;17.90;3.47;;;9.40;99.90;;;;;;7287012;19;20185;-81
2023/12/20 10:58:47;;;;;;;17.03;4.20;;;9.50;99.90;;;;;;7294557;19;20193;-79
2023/12/20 11:01:17;;;;;;;19.03;3.80;;;9.60;99.90;;;;;;7305572;19;20688;-79
2023/12/20 11:03:53;;;;;;;21.97;4.00;;;9.60;99.90;;;;;;7283526;19;20217;-80
2023/12/20 11:06:45;;;;;;;20.13;3.03;;;9.70;99.90;;;;;;7285239;19;20772;-79
2023/12/20 11:09:27;;;;;;;18.30;3.87;;;9.70;99.90;;;;;;7286298;19;20694;-78
2023/12/20 11:12:07;;;;;;;17.27;3.60;;;9.70;99.90;;;;;;7184917;19;2005810;-79
2023/12/20 11:14:40;;;;;;;18.10;3.30;;;9.70;99.90;;;;;;7284522;19;20190;-78
2023/12/20 11:17:14;;;;;;;17.53;3.13;;;9.70;99.90;;;;;;7286850;19;20197;-78
2023/12/20 11:20:01;;;;;;;19.27;3.63;;;9.70;99.90;;;;;;7285512;19;20197;-78
2023/12/20 11:22:31;;;;;;;18.30;3.50;;;9.70;99.90;;;;;;7182319;19;2005026;-79
2023/12/20 11:25:10;;;;;;;16.70;3.40;;;9.70;99.90;;;;;;7285564;19;20193;-79
2023/12/20 11:27:43;;;;;;;22.30;3.27;;;9.80;99.90;;;;;;7286577;19;20621;-79
2023/12/20 11:30:09;;;;;;;18.20;3.30;;;9.90;99.90;;;;;;7287042;19;20182;-78
2023/12/20 11:32:36;;;;;;;20.20;4.17;;;9.80;99.90;;;;;;7285387;19;20812;-79
2023/12/20 11:35:08;;;;;;;18.67;4.47;;;9.80;99.90;;;;;;7285174;19;20193;-78
2023/12/20 11:37:42;;;;;;;23.97;3.90;;;9.80;99.90;;;;;;7285020;19;20198;-79
2023/12/20 11:40:12;;;;;;;22.23;4.53;;;10.00;99.90;;;;;;7283402;19;20648;-78
2023/12/20 11:42:45;;;;;;;15.20;3.17;;;10.10;99.90;;;;;;7285177;19;20189;-78
2023/12/20 11:45:19;;;;;;;22.20;4.27;;;10.00;99.90;;;;;;7284504;19;20192;-79
2023/12/20 11:47:49;;;;;;;20.40;3.67;;;10.00;99.90;;;;;;7275420;19;20218;-78
2023/12/20 11:50:16;;;;;;;19.70;3.57;;;10.00;99.90;;;;;;7293928;19;20218;-79
2023/12/20 11:52:42;;;;;;;15.63;3.50;;;10.10;99.90;;;;;;7306113;19;20259;-78
2023/12/20 11:55:07;;;;;;;22.33;3.83;;;10.00;99.90;;;;;;7285396;19;20186;-78
2023/12/20 11:57:34;;;;;;;20.67;3.23;;;10.00;99.90;;;;;;7285169;19;20211;-78
2023/12/20 12:00:00;;;;;;;21.50;4.00;;;10.00;99.90;;;;;;7282642;19;20190;-79
2023/12/20 12:02:25;;;;;;;18.70;3.63;;;10.10;99.90;;;;;;7281993;19;20271;-78
2023/12/20 12:04:51;;;;;;;21.57;4.27;;;10.00;99.90;;;;;;7281907;19;21048;-79
2023/12/20 12:07:17;;;;;;;20.27;3.23;;;10.00;99.90;;;;;;7281916;19;20213;-79
2023/12/20 12:09:44;;;;;;;15.87;3.07;;;9.90;99.90;;;;;;7304990;19;20300;-78
2023/12/20 12:12:11;;;;;;;13.43;2.83;;;10.00;99.90;;;;;;7281238;19;20197;-78
2023/12/20 12:14:38;;;;;;;21.80;3.60;;;9.90;99.90;;;;;;7280195;19;20272;-79
2023/12/20 12:17:04;;;;;;;20.30;3.23;;;10.00;99.90;;;;;;7280013;19;20195;-78
2023/12/20 12:19:35;;;;;;;22.63;3.53;;;10.10;99.90;;;;;;7278963;19;20186;-79
2023/12/20 12:22:07;;;;;;;17.30;3.10;;;10.20;99.90;;;;;;7284231;19;20189;-78
2023/12/20 12:24:32;;;;;;;21.30;3.87;;;10.20;99.90;;;;;;7284271;19;20189;-78
2023/12/20 12:26:59;;;;;;;20.53;3.23;;;10.30;99.90;;;;;;7285255;19;20642;-79
2023/12/20 12:29:25;;;;;;;21.83;3.97;;;10.30;99.90;;;;;;7284376;19;20202;-78
2023/12/20 12:31:51;;;;;;;27.23;5.13;;;10.40;99.90;;;;;;7283925;19;20191;-79
2023/12/20 12:34:17;;;;;;;18.30;4.03;;;10.50;99.90;;;;;;7283729;19;20193;-78
2023/12/20 12:36:45;;;;;;;18.47;5.23;;;10.50;99.90;;;;;;7304889;19;20275;-79
2023/12/20 12:39:18;;;;;;;18.60;4.73;;;10.60;99.90;;;;;;7283526;19;20190;-80
2023/12/20 12:41:44;;;;;;;22.00;6.20;;;10.60;99.90;;;;;;7285535;19;20271;-79
2023/12/20 12:44:09;;;;;;;18.07;4.00;;;10.40;99.90;;;;;;7282710;19;20194;-79